Latest Weather Observations for Cunderdin Airport

IDW60801

Issued at 4:33 pm WST Wednesday 26 July 2017 (issued every 30 minutes, with the page automatically refreshed every 10 minutes)

About weather observations | Map of weather stations | Latest weather observations for WA | Other Formats
Station Details ID: 010286 Name: CUNDERDIN AIRFIELD Lat: -31.62 Lon: 117.22 Height: 216.7 m
Data from the previous 72 hours. | See also: Recent months at Cunderdin Airport
Date/Time
WST
Temp
°C
App
Temp
°C
Dew
Point
°C
Rel
Hum
%
Delta-T
°C
Wind Press
QNH
hPa
Press
MSL
hPa
Rain since
9am
mm
Dir  Spd
km/h
Gust
km/h
Spd
kts
Gust
kts
26/04:30pm 15.4 14.1 13.6 89 1.0 WNW 13 19 7 10 1018.9 1019.1 0.6
26/04:00pm 15.6 13.3 13.1 85 1.4 WNW 17 22 9 12 1018.5 1018.7 0.6
26/03:30pm 15.8 13.1 13.6 87 1.2 W 20 26 11 14 1018.2 1018.4 0.6
26/03:00pm 15.9 12.9 13.6 86 1.3 W 22 28 12 15 1017.9 1018.1 0.6
26/02:30pm 16.2 12.0 13.5 84 1.5 W 28 43 15 23 1017.6 1017.8 0.4
26/02:00pm 16.3 13.6 14.5 89 1.0 W 22 28 12 15 1017.3 1017.5 0.2
26/01:58pm 16.2 13.5 14.6 90 0.9 W 22 28 12 15 1017.2 1017.4 0.2
26/01:38pm 16.0 10.8 14.4 90 0.9 W 35 50 19 27 1017.5 1017.7 0.0
26/01:30pm 16.5 9.4 13.4 82 1.8 WNW 43 54 23 29 1017.4 1017.6 0.0
26/01:00pm 21.2 15.5 11.2 53 5.6 WNW 32 41 17 22 1017.1 1017.3 0.0
26/12:30pm 20.1 14.2 12.3 61 4.4 WNW 35 46 19 25 1017.6 1017.8 0.0
26/12:07pm 18.1 11.3 11.9 67 3.4 NNW 39 48 21 26 1018.0 1018.2 0.0
26/12:04pm 18.0 11.1 11.6 66 3.5 NNW 39 48 21 26 1018.0 1018.2 0.0
26/12:00pm 18.2 12.1 11.7 66 3.6 NNW 35 48 19 26 1018.0 1018.2 0.0
26/11:58am 18.1 12.0 11.7 66 3.5 NNW 35 48 19 26 1018.0 1018.2 0.0
26/11:30am 17.4 11.7 11.2 67 3.4 N 32 46 17 25 1018.3 1018.5 0.0
26/11:00am 18.1 12.5 11.4 65 3.7 N 32 44 17 24 1018.7 1018.9 0.0
26/10:30am 17.0 11.2 11.5 70 3.0 N 33 44 18 24 1019.0 1019.2 0.0
26/10:00am 16.2 11.1 10.5 69 3.0 N 28 43 15 23 1019.3 1019.4 0.0
26/09:30am 14.8 10.3 10.0 73 2.5 N 24 35 13 19 1019.3 1019.4 0.0
26/09:00am 13.5 10.0 10.1 80 1.8 NNW 19 24 10 13 1019.1 1019.3 0.2
26/08:30am 12.2 9.2 9.4 83 1.4 N 15 20 8 11 1019.0 1019.2 0.2
26/08:00am 10.6 9.2 8.7 88 0.9 WNW 6 9 3 5 1018.7 1018.9 0.2
26/07:30am 9.6 7.0 7.7 88 0.9 NNW 11 17 6 9 1018.4 1018.6 0.2
26/07:00am 9.2 6.2 7.5 89 0.8 N 13 17 7 9 1018.2 1018.4 0.2
26/06:30am 9.9 6.5 7.7 86 1.1 NNW 15 19 8 10 1017.9 1018.1 0.2
26/06:00am 9.9 5.8 7.7 86 1.1 NNW 19 24 10 13 1017.9 1018.1 0.2
26/05:30am 8.3 6.0 7.4 94 0.4 NNW 9 13 5 7 1018.0 1018.2 0.2
26/05:00am 7.8 5.8 6.9 94 0.4 SW 7 9 4 5 1018.0 1018.2 0.2
26/04:30am 7.5 6.0 6.8 95 0.3 SW 4 7 2 4 1018.0 1018.2 0.2
26/04:00am 8.2 6.5 7.6 96 0.3 N 6 11 3 6 1018.4 1018.6 0.2
26/03:30am 6.5 5.6 5.9 96 0.3 CALM 0 0 0 0 1018.6 1018.8 0.2
26/03:00am 6.6 5.7 6.0 96 0.3 CALM 0 4 0 2 1018.5 1018.7 0.2
26/02:30am 6.9 6.1 6.3 96 0.3 CALM 0 0 0 0 1018.7 1018.9 0.2
26/02:00am 6.2 5.2 5.5 95 0.3 CALM 0 0 0 0 1018.7 1018.9 0.2
26/01:30am 7.5 6.8 6.8 95 0.3 CALM 0 0 0 0 1019.0 1019.2 0.2
26/01:00am 7.3 6.5 6.4 94 0.4 CALM 0 4 0 2 1019.4 1019.5 0.2
26/12:30am 7.1 6.2 5.9 92 0.5 CALM 0 0 0 0 1019.4 1019.5 0.2
26/12:00am 7.8 7.1 6.9 94 0.4 CALM 0 0 0 0 1019.8 1019.9 0.2
 
Date/Time
WST
Temp
°C
App
Temp
°C
Dew
Point
°C
Rel
Hum
%
Delta-T
°C
Wind Press
QNH
hPa
Press
MSL
hPa
Rain since
9am
mm
Dir  Spd
km/h
Gust
km/h
Spd
kts
Gust
kts
25/11:30pm 7.6 6.4 6.4 92 0.6 N 2 6 1 3 1019.9 1020.0 0.2
25/11:00pm 8.1 7.3 6.7 91 0.7 CALM 0 6 0 3 1020.0 1020.1 0.2
25/10:30pm 9.1 8.1 7.4 89 0.8 NNW 2 7 1 4 1020.3 1020.4 0.2
25/10:00pm 9.2 6.8 7.2 87 1.0 N 9 11 5 6 1020.7 1020.8 0.2
25/09:30pm 9.4 6.3 7.3 87 1.0 N 13 13 7 7 1020.7 1020.8 0.2
25/09:00pm 9.4 6.7 7.2 86 1.0 N 11 13 6 7 1020.9 1021.1 0.2
25/08:30pm 9.1 6.3 6.9 86 1.0 N 11 13 6 7 1020.8 1020.9 0.2
25/08:00pm 10.1 8.7 7.3 83 1.3 N 4 7 2 4 1020.3 1020.4 0.2
25/07:30pm 10.8 8.8 7.3 79 1.7 WNW 7 7 4 4 1020.3 1020.4 0.2
25/07:00pm 12.2 9.2 7.5 73 2.3 NNW 13 15 7 8 1020.2 1020.3 0.2
25/06:30pm 12.4 9.8 7.7 73 2.3 N 11 13 6 7 1020.0 1020.1 0.2
25/06:00pm 13.3 11.1 7.7 69 2.8 NNW 9 11 5 6 1019.5 1019.6 0.2
25/05:30pm 14.1 12.0 8.1 67 3.0 N 9 11 5 6 1019.5 1019.6 0.2
25/05:00pm 15.5 12.9 7.8 60 3.9 N 11 13 6 7 1019.7 1019.8 0.2
25/04:30pm 17.9 14.7 7.0 49 5.5 N 13 20 7 11 1019.8 1019.9 0.2
25/04:00pm 18.6 14.1 6.8 46 6.0 N 20 28 11 15 1019.9 1020.0 0.2
25/03:30pm 18.6 14.8 7.7 49 5.6 N 17 26 9 14 1019.8 1019.9 0.2
25/03:00pm 18.5 14.9 8.2 51 5.3 N 17 24 9 13 1019.8 1019.9 0.2
25/02:30pm 18.9 14.6 7.7 48 5.8 N 20 30 11 16 1019.7 1019.8 0.2
25/02:00pm 18.6 14.7 8.8 53 5.1 N 19 26 10 14 1019.8 1019.9 0.2
25/01:30pm 18.3 14.8 8.6 53 5.1 N 17 24 9 13 1020.0 1020.1 0.0
25/01:00pm 17.3 13.4 8.7 57 4.5 N 19 24 10 13 1020.3 1020.4 0.0
25/12:30pm 18.2 14.3 8.7 54 5.0 N 19 26 10 14 1021.0 1021.2 0.0
25/12:00pm 16.9 12.0 8.3 57 4.4 NNW 24 32 13 17 1021.5 1021.7 0.0
25/11:30am 17.8 14.0 9.7 59 4.3 N 20 30 11 16 1022.0 1022.2 0.0
25/11:00am 16.4 14.0 10.0 66 3.4 NNW 13 20 7 11 1022.4 1022.6 0.0
25/10:30am 15.4 13.4 10.2 71 2.8 NNW 11 17 6 9 1022.6 1022.8 0.0
25/10:00am 14.5 12.1 10.1 75 2.3 N 13 15 7 8 1022.8 1023.0 0.0
25/09:30am 13.2 11.5 9.8 80 1.8 NNW 9 15 5 8 1022.7 1022.9 0.0
25/09:00am 11.8 11.4 9.9 88 1.0 N 2 7 1 4 1022.7 1022.9 0.4
25/08:30am 10.0 9.9 9.4 96 0.3 CALM 0 0 0 0 1022.6 1022.8 0.4
25/08:00am 9.2 8.9 8.7 97 0.2 CALM 0 0 0 0 1022.2 1022.4 0.4
25/07:30am 8.7 8.3 8.4 98 0.1 CALM 0 0 0 0 1021.8 1022.0 0.4
25/07:00am 8.0 7.5 7.7 98 0.1 CALM 0 0 0 0 1021.7 1021.9 0.4
25/06:30am 7.7 7.1 7.4 98 0.1 CALM 0 0 0 0 1021.6 1021.8 0.4
25/06:00am 7.1 6.4 6.8 98 0.1 CALM 0 0 0 0 1021.5 1021.7 0.4
25/05:30am 6.9 5.0 6.6 98 0.1 E 6 7 3 4 1021.3 1021.5 0.4
25/05:00am 7.1 6.4 6.8 98 0.1 CALM 0 0 0 0 1021.2 1021.4 0.4
25/04:30am 7.4 5.6 7.1 98 0.1 SE 6 9 3 5 1021.1 1021.3 0.4
25/04:00am 7.3 5.8 7.0 98 0.1 E 4 7 2 4 1021.1 1021.3 0.4
25/03:30am 7.1 5.0 6.8 98 0.1 E 7 9 4 5 1021.1 1021.3 0.4
25/03:00am 7.6 7.0 7.2 97 0.2 CALM 0 0 0 0 1021.1 1021.3 0.4
25/02:30am 8.1 7.6 7.8 98 0.1 CALM 0 0 0 0 1021.0 1021.2 0.4
25/02:00am 7.3 6.6 6.9 97 0.2 CALM 0 0 0 0 1021.1 1021.3 0.4
25/01:30am 7.6 7.0 7.2 97 0.2 CALM 0 0 0 0 1021.1 1021.3 0.4
25/01:00am 8.3 7.8 7.7 96 0.3 CALM 0 0 0 0 1021.0 1021.2 0.4
25/12:30am 9.2 8.5 8.7 97 0.2 W 2 7 1 4 1021.0 1021.2 0.4
25/12:00am 8.7 8.3 8.3 97 0.2 CALM 0 0 0 0 1021.1 1021.3 0.4
 
Date/Time
WST
Temp
°C
App
Temp
°C
Dew
Point
°C
Rel
Hum
%
Delta-T
°C
Wind Press
QNH
hPa
Press
MSL
hPa
Rain since
9am
mm
Dir  Spd
km/h
Gust
km/h
Spd
kts
Gust
kts
24/11:30pm 9.1 8.8 8.5 96 0.3 CALM 0 0 0 0 1021.1 1021.3 0.4
24/11:00pm 9.7 8.4 9.1 96 0.3 WNW 6 9 3 5 1021.3 1021.5 0.4
24/10:30pm 9.4 7.4 8.8 96 0.3 WNW 9 11 5 6 1021.2 1021.4 0.4
24/10:00pm 9.4 7.4 8.6 95 0.4 WNW 9 11 5 6 1021.2 1021.4 0.4
24/09:30pm 10.1 9.9 9.2 94 0.5 CALM 0 0 0 0 1021.0 1021.2 0.4
24/09:00pm 10.6 9.4 9.7 94 0.5 W 6 11 3 6 1020.9 1021.1 0.4
24/08:30pm 10.4 7.9 9.6 95 0.4 N 13 13 7 7 1020.8 1020.9 0.4
24/08:00pm 9.9 7.2 9.0 94 0.4 N 13 13 7 7 1020.8 1020.9 0.2
24/07:30pm 10.3 8.5 9.4 94 0.5 N 9 11 5 6 1020.6 1020.7 0.2
24/07:00pm 10.9 8.4 9.8 93 0.6 N 13 13 7 7 1020.4 1020.5 0.2
24/06:30pm 11.8 9.9 10.4 91 0.7 WNW 11 13 6 7 1020.2 1020.3 0.2
24/06:00pm 12.5 9.1 10.6 88 1.0 W 19 24 10 13 1019.9 1020.0 0.2
24/05:30pm 13.4 9.8 10.6 83 1.5 NW 20 44 11 24 1019.6 1019.7 0.2
24/05:00pm 14.6 10.5 10.2 75 2.3 NNW 22 28 12 15 1019.0 1019.2 0.0
24/04:30pm 15.8 12.4 9.2 65 3.4 W 17 24 9 13 1018.6 1018.8 0.0
24/04:00pm 16.7 12.7 9.1 61 4.0 W 20 26 11 14 1018.1 1018.3 0.0
24/03:30pm 16.8 12.7 8.8 59 4.2 WNW 20 26 11 14 1018.0 1018.2 0.0
24/03:00pm 16.8 12.8 9.0 60 4.1 NNW 20 28 11 15 1018.0 1018.2 0.0
24/02:30pm 17.2 13.4 8.9 58 4.3 WNW 19 24 10 13 1018.0 1018.2 0.0
24/02:00pm 16.9 11.9 8.1 56 4.5 NNW 24 30 13 16 1018.0 1018.2 0.0
24/01:30pm 17.7 13.8 9.6 59 4.3 W 20 30 11 16 1018.2 1018.4 0.0
24/01:00pm 16.2 12.5 9.4 64 3.6 NW 19 24 10 13 1018.6 1018.8 0.0
24/12:30pm 16.2 12.4 8.9 62 3.8 NW 19 28 10 15 1018.7 1018.9 0.0
24/12:00pm 16.4 13.4 9.3 63 3.7 N 15 20 8 11 1019.4 1019.5 0.0
24/11:30am 14.9 12.9 10.3 74 2.4 N 11 15 6 8 1019.9 1020.0 0.0
24/11:03am 14.8 12.0 11.2 79 1.9 N 17 22 9 12 1020.4 1020.5 0.0
24/11:00am 13.9 10.6 9.5 75 2.3 N 17 22 9 12 1020.5 1020.6 0.0
24/10:30am 13.2 11.7 11.8 91 0.8 N 11 19 6 10 1020.8 1020.9 0.0
24/10:00am 12.3 10.4 11.8 97 0.3 N 13 17 7 9 1021.0 1021.2 0.0
24/09:30am 11.8 10.6 11.5 98 0.2 NNW 9 11 5 6 1020.8 1020.9 0.0
24/09:21am 11.7 10.4 11.4 98 0.2 NNW 9 13 5 7 1020.7 1020.8 0.0
24/09:00am 11.4 9.7 11.1 98 0.2 NNW 11 13 6 7 1020.6 1020.7 1.8
24/08:30am 11.2 10.2 10.9 98 0.2 N 7 9 4 5 1020.3 1020.4 1.8
24/08:00am 11.1 10.2 10.8 98 0.2 N 6 11 3 6 1020.1 1020.2 1.8
24/07:30am 11.0 9.9 10.7 98 0.2 N 7 9 4 5 1019.7 1019.8 1.8
24/07:00am 10.9 11.1 10.6 98 0.2 CALM 0 0 0 0 1019.3 1019.4 1.8
24/06:30am 10.7 9.7 10.4 98 0.2 WSW 6 7 3 4 1019.3 1019.4 1.8
24/06:00am 10.8 10.6 10.5 98 0.2 NNW 2 6 1 3 1018.7 1018.9 1.6
24/05:30am 11.1 10.0 10.8 98 0.2 NNW 7 11 4 6 1018.6 1018.8 1.6
24/05:00am 11.0 11.2 10.7 98 0.2 CALM 0 0 0 0 1018.5 1018.7 1.6
24/04:37am 11.0 11.2 10.7 98 0.2 CALM 0 0 0 0 1018.5 1018.7 1.6
24/04:30am 11.0 11.2 10.7 98 0.2 CALM 0 0 0 0 1018.4 1018.6 1.6
24/04:07am 11.2 10.2 10.9 98 0.2 WNW 7 11 4 6 1018.5 1018.7 1.6
24/04:00am 11.2 10.2 10.9 98 0.2 WNW 7 11 4 6 1018.5 1018.7 1.6
24/03:52am 11.1 10.2 10.8 98 0.2 WNW 6 9 3 5 1018.5 1018.7 1.6
24/03:37am 10.9 10.7 10.6 98 0.2 W 2 6 1 3 1018.5 1018.7 1.4
24/03:30am 11.0 10.1 10.7 98 0.2 W 6 7 3 4 1018.4 1018.6 1.4
24/03:00am 11.0 9.9 10.7 98 0.2 W 7 9 4 5 1018.3 1018.5 1.4
24/02:41am 10.8 9.3 10.5 98 0.2 WNW 9 9 5 5 1018.3 1018.5 1.4
24/02:30am 10.4 9.1 9.9 97 0.3 W 7 7 4 4 1018.2 1018.4 1.4
24/02:00am 10.4 10.4 9.9 97 0.3 CALM 0 2 0 1 1018.1 1018.3 1.4
24/01:30am 10.7 10.8 10.2 97 0.3 CALM 0 0 0 0 1018.1 1018.3 1.4
24/01:00am 10.8 9.6 10.2 96 0.3 NW 7 7 4 4 1018.1 1018.3 1.4
24/12:30am 11.0 10.0 10.4 96 0.3 WNW 6 7 3 4 1018.2 1018.4 1.4
24/12:00am 11.6 10.7 10.8 95 0.4 NW 6 9 3 5 1018.2 1018.4 1.4
 
Date/Time
WST
Temp
°C
App
Temp
°C
Dew
Point
°C
Rel
Hum
%
Delta-T
°C
Wind Press
QNH
hPa
Press
MSL
hPa
Rain since
9am
mm
Dir  Spd
km/h
Gust
km/h
Spd
kts
Gust
kts
23/11:30pm 12.1 10.4 11.3 95 0.4 WNW 11 13 6 7 1018.4 1018.6 1.4
23/11:00pm 12.2 10.6 11.6 96 0.3 NW 11 15 6 8 1018.3 1018.5 1.4
23/10:30pm 12.0 11.1 11.4 96 0.3 N 7 9 4 5 1018.4 1018.6 1.4
23/10:00pm 12.0 10.4 11.4 96 0.3 WNW 11 11 6 6 1018.5 1018.7 1.4
23/09:30pm 11.8 10.8 11.0 95 0.4 WNW 7 9 4 5 1018.3 1018.5 1.4
23/09:00pm 12.2 11.3 11.3 94 0.5 WNW 7 9 4 5 1018.2 1018.4 1.4
23/08:30pm 12.3 10.6 11.2 93 0.6 N 11 15 6 8 1018.1 1018.3 1.4
23/08:00pm 12.6 10.5 11.3 92 0.7 WNW 13 15 7 8 1018.0 1018.2 1.4
23/07:30pm 12.6 10.5 11.3 92 0.7 WNW 13 17 7 9 1017.8 1018.0 1.4
23/07:00pm 12.3 9.8 11.2 93 0.6 N 15 17 8 9 1017.6 1017.8 1.4
23/06:30pm 12.9 11.0 11.8 93 0.6 NW 13 15 7 8 1017.6 1017.8 1.4
23/06:00pm 13.2 10.1 11.6 90 0.9 NNW 19 24 10 13 1017.2 1017.4 1.4
23/05:30pm 13.3 10.0 11.7 90 0.9 NNW 20 32 11 17 1016.9 1017.0 1.4
23/05:00pm 13.4 9.8 11.8 90 0.9 NNW 22 28 12 15 1017.0 1017.2 1.4

Other Formats:

Comma delimited format used in spreadsheet applications
http://www.bom.gov.au/fwo/IDW60801/IDW60801.95625.axf

JavaScript Object Notation format (JSON) in row-major order
http://www.bom.gov.au/fwo/IDW60801/IDW60801.95625.json